Time;durP1;ratioP1;P1;durP2;ratioP2;P2;SDS_P1;SDS_P2;PMS_P1;PMS_P2;Temp;Humidity;BMP_temperature;BMP_pressure;BME280_temperature;BME280_humidity;BME280_pressure;Samples;Min_cycle;Max_cycle;Signal;HPM_P1;HPM_P2
2022/04/18 00:00:09;;;;;;;0.28;0.28;;;9.20;93.90;;;;;;5034785;28;20029;-62
2022/04/18 00:02:35;;;;;;;0.15;0.15;;;9.10;94.20;;;;;;5033392;28;20405;-62
2022/04/18 00:05:01;;;;;;;0.25;0.25;;;9.00;93.80;;;;;;5034631;28;20025;-63
2022/04/18 00:07:27;;;;;;;0.10;0.10;;;8.80;94.90;;;;;;5016256;28;20025;-62
2022/04/18 00:09:53;;;;;;;0.22;0.22;;;8.70;94.70;;;;;;5034430;28;20033;-62
2022/04/18 00:12:19;;;;;;;0.00;0.00;;;8.70;95.30;;;;;;5034113;28;20366;-62
2022/04/18 00:14:46;;;;;;;0.00;0.00;;;8.60;95.50;;;;;;5033045;28;20030;-62
2022/04/18 00:17:12;;;;;;;0.13;0.13;;;8.50;95.40;;;;;;5032642;28;20033;-62
2022/04/18 00:19:38;;;;;;;0.25;0.25;;;8.50;96.20;;;;;;5034354;28;20032;-62
2022/04/18 00:22:05;;;;;;;8.90;1.77;;;8.40;96.30;;;;;;5033104;28;20205;-62
2022/04/18 00:24:31;;;;;;;0.30;0.30;;;8.40;96.40;;;;;;5033330;28;20032;-62
2022/04/18 00:26:57;;;;;;;0.98;0.75;;;8.40;95.00;;;;;;5033741;28;20108;-62
2022/04/18 00:29:23;;;;;;;0.10;0.10;;;8.40;95.40;;;;;;5034248;28;20167;-63
2022/04/18 00:31:49;;;;;;;0.22;0.22;;;8.40;95.20;;;;;;5032753;28;20598;-62
2022/04/18 00:34:15;;;;;;;0.10;0.10;;;8.40;95.70;;;;;;5033800;28;20021;-63
2022/04/18 00:36:44;;;;;;;0.00;0.00;;;8.30;95.90;;;;;;5033688;28;20029;-62
2022/04/18 00:39:11;;;;;;;0.08;0.08;;;8.30;95.60;;;;;;5034115;28;20025;-62
2022/04/18 00:41:37;;;;;;;0.00;0.00;;;8.60;94.90;;;;;;5033737;28;20048;-62
2022/04/18 00:44:03;;;;;;;0.10;0.10;;;8.70;94.80;;;;;;5032792;28;20052;-62
2022/04/18 00:46:29;;;;;;;0.20;0.20;;;8.60;95.00;;;;;;5032538;28;20112;-61
2022/04/18 00:48:55;;;;;;;0.10;0.10;;;8.60;95.00;;;;;;5033901;28;20152;-62
2022/04/18 00:51:26;;;;;;;0.00;0.00;;;8.60;94.90;;;;;;5033823;28;20036;-61
2022/04/18 00:53:54;;;;;;;0.00;0.00;;;8.50;95.10;;;;;;5032799;28;20036;-62
2022/04/18 00:56:21;;;;;;;0.00;0.00;;;8.30;95.60;;;;;;5033107;28;20084;-61
2022/04/18 00:58:48;;;;;;;0.10;0.10;;;8.30;96.20;;;;;;5032271;28;20029;-62
2022/04/18 01:01:16;;;;;;;0.00;0.00;;;8.10;97.10;;;;;;5032201;28;20029;-63
2022/04/18 01:03:44;;;;;;;3.17;1.17;;;8.10;97.80;;;;;;5032917;28;20429;-63
2022/04/18 01:06:10;;;;;;;0.00;0.00;;;8.10;98.50;;;;;;5014264;28;20022;-63
2022/04/18 01:08:36;;;;;;;0.00;0.00;;;7.70;99.90;;;;;;5026602;28;20025;-63
2022/04/18 01:11:05;;;;;;;0.10;0.10;;;7.60;99.90;;;;;;5021410;28;20025;-63
2022/04/18 01:13:48;;;;;;;0.00;0.00;;;7.50;99.90;;;;;;5033328;28;20029;-63
2022/04/18 01:16:15;;;;;;;0.00;0.00;;;7.30;99.90;;;;;;5019238;28;20092;-63
2022/04/18 01:18:45;;;;;;;0.00;0.00;;;7.20;99.90;;;;;;5013210;28;20044;-62
2022/04/18 01:21:11;;;;;;;0.00;0.00;;;7.20;99.90;;;;;;5012314;28;20037;-62
2022/04/18 01:23:37;;;;;;;0.10;0.10;;;7.10;99.90;;;;;;5015371;28;20052;-63
2022/04/18 01:29:01;;;;;;;0.28;0.28;;;7.10;99.90;;;;;;5032600;28;20038;-63
2022/04/18 01:31:38;;;;;;;0.80;0.80;;;7.30;99.90;;;;;;5033064;28;20021;-62
2022/04/18 01:34:06;;;;;;;0.13;0.13;;;7.20;99.90;;;;;;5014971;28;20049;-62
2022/04/18 01:36:33;;;;;;;0.08;0.08;;;7.20;99.90;;;;;;5031206;28;20059;-63
2022/04/18 01:38:59;;;;;;;0.00;0.00;;;7.10;99.90;;;;;;5031566;28;20036;-62
2022/04/18 01:41:25;;;;;;;0.00;0.00;;;6.90;99.90;;;;;;5020825;28;20489;-63
2022/04/18 01:43:51;;;;;;;0.13;0.13;;;6.80;99.90;;;;;;5011026;28;20088;-62
2022/04/18 01:46:18;;;;;;;0.10;0.10;;;6.70;99.90;;;;;;5011112;28;20425;-62
2022/04/18 01:48:46;;;;;;;0.20;0.20;;;6.60;99.90;;;;;;5012713;28;20100;-62
2022/04/18 01:51:12;;;;;;;0.00;0.00;;;6.60;99.90;;;;;;5012662;28;20087;-62
2022/04/18 01:53:38;;;;;;;0.20;0.20;;;6.50;99.90;;;;;;5011629;28;20029;-63
2022/04/18 01:56:04;;;;;;;0.40;0.40;;;6.50;99.90;;;;;;5012655;28;20038;-63
2022/04/18 01:58:30;;;;;;;0.10;0.10;;;6.40;99.90;;;;;;5012017;28;20122;-63
2022/04/18 02:00:56;;;;;;;0.00;0.00;;;6.30;99.90;;;;;;5010998;28;20122;-63
2022/04/18 02:03:22;;;;;;;0.00;0.00;;;6.30;99.90;;;;;;5012326;28;20030;-62
2022/04/18 02:05:50;;;;;;;0.00;0.00;;;6.30;99.90;;;;;;5010988;28;20030;-62
2022/04/18 02:08:16;;;;;;;0.10;0.10;;;6.30;99.90;;;;;;5010887;28;20022;-62
2022/04/18 02:10:42;;;;;;;0.47;0.47;;;6.30;99.90;;;;;;5012139;28;20083;-62
2022/04/18 02:13:09;;;;;;;0.65;0.65;;;6.30;99.90;;;;;;5012371;28;20030;-63
2022/04/18 02:15:34;;;;;;;0.00;0.00;;;6.30;99.90;;;;;;5014339;28;20095;-62
2022/04/18 02:18:00;;;;;;;0.52;0.52;;;6.50;99.90;;;;;;5030693;28;20499;-63
2022/04/18 02:20:26;;;;;;;0.00;0.00;;;6.50;99.90;;;;;;5032073;28;20045;-62
2022/04/18 02:22:52;;;;;;;0.00;0.00;;;6.50;99.90;;;;;;5030391;28;20033;-63
2022/04/18 02:25:18;;;;;;;0.10;0.10;;;6.40;99.90;;;;;;5030519;28;20056;-62
2022/04/18 02:27:44;;;;;;;0.10;0.10;;;6.50;99.90;;;;;;5031353;28;20028;-63
2022/04/18 02:30:10;;;;;;;0.10;0.10;;;6.30;99.90;;;;;;5031606;28;20037;-62
2022/04/18 02:32:49;;;;;;;0.10;0.10;;;6.30;99.90;;;;;;5031570;28;20034;-62
2022/04/18 02:35:21;;;;;;;0.35;0.35;;;6.10;99.90;;;;;;5030802;28;20037;-62
2022/04/18 02:37:47;;;;;;;;;;;6.10;99.90;;;;;;5031885;28;20029;-62
2022/04/18 02:40:13;;;;;;;0.00;0.00;;;6.10;99.90;;;;;;5014016;28;20369;-62
2022/04/18 02:42:42;;;;;;;0.00;0.00;;;5.80;99.90;;;;;;5030003;28;20041;-62
2022/04/18 02:45:12;;;;;;;0.00;0.00;;;5.60;99.90;;;;;;5030053;28;20083;-62
2022/04/18 02:47:38;;;;;;;0.10;0.10;;;5.80;99.90;;;;;;5029731;28;20072;-62
2022/04/18 02:50:06;;;;;;;0.20;0.20;;;4.50;99.90;;;;;;5013330;28;20025;-62
2022/04/18 02:52:32;;;;;;;0.10;0.10;;;6.10;99.90;;;;;;5029928;28;20452;-62
2022/04/18 02:54:59;;;;;;;0.00;0.00;;;6.10;99.90;;;;;;5030029;28;20084;-62
2022/04/18 02:57:24;;;;;;;1.55;0.98;;;6.10;99.90;;;;;;5029982;28;20033;-62
2022/04/18 02:59:51;;;;;;;0.00;0.00;;;5.90;99.90;;;;;;5030985;28;20036;-62
2022/04/18 03:02:16;;;;;;;0.00;0.00;;;5.90;99.90;;;;;;5031024;28;20083;-62
2022/04/18 03:04:42;;;;;;;0.10;0.10;;;6.00;99.90;;;;;;5031051;28;20029;-62
2022/04/18 03:07:11;;;;;;;0.28;0.28;;;6.00;99.90;;;;;;5030754;28;20091;-62
2022/04/18 03:09:36;;;;;;;1.45;0.68;;;6.10;99.90;;;;;;5029510;28;20029;-63
2022/04/18 03:12:02;;;;;;;0.22;0.20;;;6.10;99.90;;;;;;5030990;28;20017;-62
2022/04/18 03:14:29;;;;;;;3.92;1.27;;;6.30;99.90;;;;;;5028791;28;20068;-62
2022/04/18 03:16:56;;;;;;;0.00;0.00;;;6.50;99.90;;;;;;5010834;28;20378;-62
2022/04/18 03:19:21;;;;;;;0.45;0.45;;;6.60;99.90;;;;;;5009568;28;20029;-63
2022/04/18 03:21:48;;;;;;;0.00;0.00;;;6.60;99.90;;;;;;5011384;28;20036;-62
2022/04/18 03:24:14;;;;;;;0.30;0.30;;;6.80;99.90;;;;;;5011193;28;20026;-62
2022/04/18 03:26:40;;;;;;;0.00;0.00;;;6.80;99.90;;;;;;5010640;28;20029;-62
2022/04/18 03:29:05;;;;;;;0.40;0.40;;;6.90;99.90;;;;;;5010356;28;20033;-62
2022/04/18 03:31:32;;;;;;;0.20;0.20;;;7.00;99.90;;;;;;5010476;28;20033;-62
2022/04/18 03:33:58;;;;;;;0.00;0.00;;;7.10;99.90;;;;;;5009470;28;20591;-62
2022/04/18 03:41:52;;;;;;;0.00;0.00;;;6.60;99.90;;;;;;5010670;28;20041;-62
2022/04/18 03:44:21;;;;;;;0.13;0.13;;;6.50;99.90;;;;;;5010935;28;20077;-62
2022/04/18 03:46:46;;;;;;;0.08;0.05;;;6.30;99.90;;;;;;5010651;28;20056;-62
2022/04/18 03:49:12;;;;;;;0.00;0.00;;;6.30;99.90;;;;;;5010742;28;20601;-62
2022/04/18 03:51:38;;;;;;;0.10;0.10;;;6.30;99.90;;;;;;5010564;28;20508;-62
2022/04/18 03:54:03;;;;;;;0.20;0.20;;;6.40;99.90;;;;;;5010516;28;20034;-62
2022/04/18 03:56:29;;;;;;;0.00;0.00;;;6.40;99.90;;;;;;5010859;28;20040;-62
2022/04/18 03:58:55;;;;;;;0.00;0.00;;;6.60;99.90;;;;;;5010191;28;20041;-62
2022/04/18 04:01:21;;;;;;;0.00;0.00;;;6.50;99.90;;;;;;4992958;28;20030;-62
2022/04/18 04:03:46;;;;;;;0.10;0.10;;;6.80;99.90;;;;;;5010589;28;20442;-63
2022/04/18 04:06:12;;;;;;;0.25;0.25;;;6.80;99.90;;;;;;5010526;28;20022;-62
2022/04/18 04:08:38;;;;;;;0.00;0.00;;;6.90;99.90;;;;;;5010513;28;20026;-62
2022/04/18 04:11:03;;;;;;;0.00;0.00;;;6.70;99.90;;;;;;5010427;28;20104;-62
2022/04/18 04:13:29;;;;;;;0.20;0.20;;;6.20;99.90;;;;;;5010689;28;20030;-62
2022/04/18 04:15:56;;;;;;;0.00;0.00;;;5.80;99.90;;;;;;5023517;28;20036;-62
2022/04/18 04:18:21;;;;;;;0.00;0.00;;;5.80;99.90;;;;;;5030013;28;20048;-62
2022/04/18 04:20:47;;;;;;;0.88;0.52;;;5.70;99.90;;;;;;5030047;28;20620;-62
2022/04/18 04:23:14;;;;;;;2.45;0.88;;;5.70;99.90;;;;;;5030279;28;20037;-62
2022/04/18 04:25:39;;;;;;;0.00;0.00;;;5.80;99.90;;;;;;5030029;28;20128;-62
2022/04/18 04:28:05;;;;;;;0.10;0.10;;;5.90;99.90;;;;;;5029954;28;20029;-62
2022/04/18 04:30:31;;;;;;;38.60;2.15;;;6.00;99.90;;;;;;5030234;28;20032;-62
2022/04/18 04:32:57;;;;;;;0.28;0.28;;;6.00;99.90;;;;;;5029101;28;20104;-62
2022/04/18 04:35:23;;;;;;;0.00;0.00;;;5.70;99.90;;;;;;5029991;28;20025;-62
2022/04/18 04:37:48;;;;;;;0.15;0.15;;;6.10;99.90;;;;;;5030099;28;20112;-62
2022/04/18 04:40:14;;;;;;;0.10;0.10;;;6.20;99.90;;;;;;5029944;28;20084;-62
2022/04/18 04:42:40;;;;;;;0.17;0.17;;;6.40;99.90;;;;;;5032031;28;20038;-62
2022/04/18 04:45:06;;;;;;;0.52;0.52;;;6.30;99.00;;;;;;5032526;28;20030;-62
2022/04/18 04:47:32;;;;;;;0.55;0.55;;;6.50;98.30;;;;;;5033122;28;20025;-62
2022/04/18 04:49:58;;;;;;;0.10;0.10;;;6.50;99.90;;;;;;5033619;28;20017;-62
2022/04/18 04:52:23;;;;;;;0.25;0.25;;;6.50;99.90;;;;;;5033505;28;20539;-63
2022/04/18 04:54:54;;;;;;;0.20;0.20;;;;;;;;;;5033820;28;20043;-62
2022/04/18 04:57:20;;;;;;;0.08;0.08;;;6.40;97.90;;;;;;5033581;28;20037;-62
2022/04/18 04:59:45;;;;;;;0.10;0.10;;;6.50;97.70;;;;;;5033348;28;20036;-62
2022/04/18 05:02:11;;;;;;;0.00;0.00;;;6.60;97.70;;;;;;5033366;28;20041;-62
2022/04/18 05:04:37;;;;;;;0.00;0.00;;;6.70;97.80;;;;;;5033490;28;20037;-62
2022/04/18 05:07:03;;;;;;;0.03;0.03;;;6.90;97.90;;;;;;5032856;28;20033;-62
2022/04/18 05:09:28;;;;;;;0.10;0.10;;;7.00;97.60;;;;;;5032872;28;20044;-62
2022/04/18 05:11:54;;;;;;;0.80;0.80;;;7.10;97.60;;;;;;5033306;28;20586;-62
2022/04/18 05:14:21;;;;;;;0.40;0.40;;;7.10;97.70;;;;;;5032825;28;20033;-62
2022/04/18 05:16:47;;;;;;;0.30;0.30;;;7.10;97.70;;;;;;5012935;28;20036;-62
2022/04/18 05:19:12;;;;;;;0.00;0.00;;;7.10;97.50;;;;;;4995940;28;20034;-62
2022/04/18 05:21:38;;;;;;;0.10;0.10;;;7.20;96.90;;;;;;5013217;28;20208;-62
2022/04/18 05:24:05;;;;;;;2.17;1.10;;;7.20;96.80;;;;;;5012904;28;20380;-62
2022/04/18 05:26:31;;;;;;;0.17;0.17;;;7.20;96.60;;;;;;5012830;28;20065;-62
2022/04/18 05:28:57;;;;;;;0.28;0.28;;;7.20;97.00;;;;;;5012979;28;20018;-61
2022/04/18 05:31:23;;;;;;;1.20;1.10;;;7.20;96.60;;;;;;5012780;28;20378;-62
2022/04/18 05:33:48;;;;;;;0.90;0.57;;;7.30;96.70;;;;;;5013063;28;20044;-62
2022/04/18 05:36:14;;;;;;;0.10;0.10;;;7.30;96.90;;;;;;5012319;28;20131;-64
2022/04/18 05:38:40;;;;;;;0.43;0.43;;;7.30;96.90;;;;;;5004590;28;20038;-62
2022/04/18 05:41:06;;;;;;;0.20;0.20;;;7.30;97.00;;;;;;4993409;28;20034;-63
2022/04/18 05:43:32;;;;;;;0.35;0.20;;;7.30;97.00;;;;;;5012473;28;20033;-62
2022/04/18 05:45:58;;;;;;;0.00;0.00;;;7.40;96.90;;;;;;5012127;28;20096;-65
2022/04/18 05:48:23;;;;;;;0.10;0.10;;;7.50;96.00;;;;;;4994713;28;20121;-64
2022/04/18 05:50:49;;;;;;;0.00;0.00;;;7.50;96.30;;;;;;5012283;28;20172;-64
2022/04/18 05:53:16;;;;;;;0.52;0.52;;;7.50;96.40;;;;;;5012348;28;20124;-63
2022/04/18 05:55:42;;;;;;;0.00;0.00;;;7.60;96.30;;;;;;5012655;28;20117;-63
2022/04/18 05:58:08;;;;;;;0.00;0.00;;;7.80;94.90;;;;;;4994697;28;20052;-63
2022/04/18 06:00:37;;;;;;;0.65;0.65;;;7.90;94.70;;;;;;5012225;28;20482;-64
2022/04/18 06:03:03;;;;;;;0.00;0.00;;;7.90;94.50;;;;;;5012564;28;20042;-64
2022/04/18 06:05:29;;;;;;;0.10;0.10;;;7.90;94.60;;;;;;5012538;28;20022;-63
2022/04/18 06:07:55;;;;;;;0.73;0.50;;;8.00;94.50;;;;;;5020614;28;20029;-63
2022/04/18 06:10:21;;;;;;;0.05;0.05;;;8.10;94.30;;;;;;5031841;28;20029;-64
2022/04/18 06:12:47;;;;;;;0.00;0.00;;;8.10;94.00;;;;;;5030528;28;20025;-64
2022/04/18 06:15:13;;;;;;;0.40;0.38;;;8.10;93.90;;;;;;5030503;28;20512;-64
2022/04/18 06:17:39;;;;;;;0.63;0.63;;;8.20;94.10;;;;;;5031144;28;20608;-64
2022/04/18 06:20:06;;;;;;;0.25;0.25;;;8.10;94.40;;;;;;5030595;28;20087;-64
2022/04/18 06:22:32;;;;;;;0.00;0.00;;;8.10;94.20;;;;;;5030192;28;20037;-63
2022/04/18 06:24:58;;;;;;;0.35;0.35;;;8.20;94.40;;;;;;5031774;28;20083;-64
2022/04/18 06:27:23;;;;;;;0.95;0.65;;;8.20;94.50;;;;;;5031756;28;20428;-64
2022/04/18 06:29:49;;;;;;;4.57;0.88;;;8.20;94.70;;;;;;5031583;28;20029;-63
2022/04/18 06:32:15;;;;;;;0.30;0.30;;;8.30;94.60;;;;;;5031691;28;20098;-63
2022/04/18 06:34:41;;;;;;;0.40;0.40;;;8.40;94.40;;;;;;5031624;28;20031;-63
2022/04/18 06:37:07;;;;;;;0.00;0.00;;;8.50;94.40;;;;;;5031262;28;20068;-63
2022/04/18 06:39:32;;;;;;;0.28;0.28;;;8.60;94.20;;;;;;5030339;28;20178;-64
2022/04/18 06:41:59;;;;;;;0.22;0.22;;;8.60;93.90;;;;;;5031498;28;20160;-62
2022/04/18 06:44:24;;;;;;;0.35;0.35;;;8.80;93.80;;;;;;5013662;28;20195;-63
2022/04/18 06:46:50;;;;;;;0.00;0.00;;;8.80;93.50;;;;;;5029857;28;20036;-63
2022/04/18 06:49:16;;;;;;;0.00;0.00;;;8.90;93.00;;;;;;5031199;28;20113;-63
2022/04/18 06:51:42;;;;;;;0.10;0.10;;;9.10;93.00;;;;;;5031289;28;20030;-66
2022/04/18 06:54:08;;;;;;;0.00;0.00;;;9.20;93.10;;;;;;5031444;28;20032;-64
2022/04/18 06:59:17;;;;;;;0.32;0.32;;;9.40;91.90;;;;;;5031236;28;20080;-63
2022/04/18 07:01:44;;;;;;;0.52;0.52;;;9.50;91.70;;;;;;5031194;28;20033;-62
2022/04/18 07:04:11;;;;;;;0.03;0.03;;;9.60;91.00;;;;;;5029209;28;20044;-63
2022/04/18 07:06:37;;;;;;;0.28;0.28;;;9.80;90.20;;;;;;5030873;28;20030;-63
2022/04/18 07:09:06;;;;;;;0.00;0.00;;;9.90;89.60;;;;;;5031190;28;20025;-63
2022/04/18 07:11:32;;;;;;;0.00;0.00;;;10.10;88.50;;;;;;5030692;28;20071;-62
2022/04/18 07:13:57;;;;;;;0.63;0.63;;;10.20;88.90;;;;;;5031319;28;20498;-63
2022/04/18 07:16:23;;;;;;;0.00;0.00;;;10.30;91.30;;;;;;5030969;28;20030;-62
2022/04/18 07:18:49;;;;;;;0.17;0.17;;;10.50;91.00;;;;;;5030873;28;20461;-63
2022/04/18 07:21:14;;;;;;;0.10;0.10;;;10.50;89.30;;;;;;5029423;28;20037;-63
2022/04/18 07:23:40;;;;;;;0.10;0.10;;;10.60;88.20;;;;;;5029448;28;20116;-63
2022/04/18 07:26:06;;;;;;;0.95;0.93;;;10.70;87.90;;;;;;5029233;28;20029;-63
2022/04/18 07:28:32;;;;;;;3.63;1.00;;;10.60;88.00;;;;;;5030507;28;20036;-63
2022/04/18 07:30:57;;;;;;;0.00;0.00;;;10.70;86.40;;;;;;5029419;28;20036;-63
2022/04/18 07:33:23;;;;;;;2.75;1.15;;;10.60;85.80;;;;;;5030911;28;20037;-69
2022/04/18 07:35:49;;;;;;;0.00;0.00;;;10.70;85.50;;;;;;5030782;28;20452;-71
2022/04/18 07:41:04;;;;;;;0.10;0.10;;;10.80;85.60;;;;;;5030540;28;20112;-64
2022/04/18 07:43:33;;;;;;;;;;;10.90;85.80;;;;;;5030706;28;20080;-64
2022/04/18 07:45:59;;;;;;;0.40;0.40;;;11.10;87.00;;;;;;5004148;28;19996;-67
2022/04/18 07:48:28;;;;;;;0.10;0.10;;;11.20;84.70;;;;;;5010274;28;20108;-66
2022/04/18 07:53:38;;;;;;;0.00;0.00;;;11.50;83.90;;;;;;5010134;28;20037;-62
2022/04/18 07:56:04;;;;;;;0.00;0.00;;;11.70;83.10;;;;;;5010476;28;20382;-62
2022/04/18 07:58:29;;;;;;;0.15;0.15;;;11.80;83.10;;;;;;5010546;28;20076;-62
2022/04/18 08:00:55;;;;;;;1.98;0.80;;;11.90;84.20;;;;;;4993159;28;20022;-64
2022/04/18 08:03:21;;;;;;;0.00;0.00;;;12.00;81.70;;;;;;4992848;28;20088;-70
2022/04/18 08:05:46;;;;;;;6.18;0.55;;;12.10;85.70;;;;;;4992951;28;20030;-69
2022/04/18 08:08:12;;;;;;;0.10;0.10;;;12.20;82.20;;;;;;5010014;28;20160;-69
2022/04/18 08:10:38;;;;;;;0.08;0.08;;;12.30;81.10;;;;;;4992993;28;20073;-62
2022/04/18 08:13:04;;;;;;;2.45;0.63;;;12.50;78.90;;;;;;4976670;28;20474;-62
2022/04/18 08:15:31;;;;;;;0.00;0.00;;;12.40;78.50;;;;;;5010458;28;20038;-62
2022/04/18 08:17:57;;;;;;;0.10;0.10;;;12.40;78.70;;;;;;4995844;28;20394;-62
2022/04/18 08:20:23;;;;;;;0.00;0.00;;;12.40;78.50;;;;;;5014163;28;20041;-61
2022/04/18 08:22:49;;;;;;;0.98;0.85;;;12.60;77.60;;;;;;5014236;28;20034;-62
2022/04/18 08:25:15;;;;;;;0.00;0.00;;;12.50;75.80;;;;;;5014193;28;20563;-62
2022/04/18 08:27:41;;;;;;;0.20;0.20;;;12.50;78.30;;;;;;5013995;28;20038;-63
2022/04/18 08:30:08;;;;;;;0.28;0.28;;;12.70;77.20;;;;;;4996101;28;20371;-62
2022/04/18 08:32:38;;;;;;;0.10;0.10;;;12.80;76.70;;;;;;4996767;28;20036;-62
2022/04/18 08:35:05;;;;;;;0.28;0.28;;;12.90;75.50;;;;;;4996820;28;20029;-62
2022/04/18 08:37:31;;;;;;;0.10;0.10;;;13.00;75.20;;;;;;5013511;28;20092;-61
2022/04/18 08:39:57;;;;;;;0.15;0.10;;;13.20;74.70;;;;;;4996089;28;20026;-62
2022/04/18 08:42:24;;;;;;;0.00;0.00;;;13.10;72.20;;;;;;5013815;28;20052;-63
2022/04/18 08:44:51;;;;;;;0.15;0.15;;;13.10;73.70;;;;;;5014056;28;20076;-63
2022/04/18 08:52:51;;;;;;;0.20;0.20;;;13.40;72.10;;;;;;5013647;28;20307;-63
2022/04/18 08:55:19;;;;;;;0.88;0.88;;;13.50;72.20;;;;;;5013324;28;20053;-63
2022/04/18 08:57:45;;;;;;;0.20;0.20;;;13.60;70.90;;;;;;5013291;28;20116;-63
2022/04/18 09:00:12;;;;;;;0.13;0.13;;;13.70;70.90;;;;;;5013411;28;20161;-63
2022/04/18 09:02:39;;;;;;;0.00;0.00;;;13.70;71.00;;;;;;5013670;28;20033;-63
2022/04/18 09:05:13;;;;;;;0.10;0.10;;;13.80;72.30;;;;;;5013248;28;20029;-63
2022/04/18 09:07:44;;;;;;;0.70;0.50;;;14.00;73.70;;;;;;5012948;28;20032;-63
2022/04/18 09:10:13;;;;;;;0.00;0.00;;;14.30;70.80;;;;;;4996024;28;20124;-63
2022/04/18 09:12:42;;;;;;;0.30;0.13;;;14.40;69.60;;;;;;5013396;28;20033;-63
2022/04/18 09:15:09;;;;;;;0.15;0.15;;;14.30;70.00;;;;;;4995628;28;20026;-63
2022/04/18 09:17:36;;;;;;;0.10;0.10;;;14.40;69.60;;;;;;4995406;28;20434;-63
2022/04/18 09:20:11;;;;;;;0.00;0.00;;;14.50;69.80;;;;;;5013238;28;20481;-63
2022/04/18 09:22:46;;;;;;;0.00;0.00;;;14.70;70.50;;;;;;4979174;28;20069;-63
2022/04/18 09:25:21;;;;;;;0.20;0.20;;;14.60;67.40;;;;;;5013101;28;20037;-63
2022/04/18 09:27:49;;;;;;;0.20;0.20;;;14.40;68.90;;;;;;4994644;28;20026;-63
2022/04/18 09:30:17;;;;;;;0.75;0.75;;;14.70;67.10;;;;;;5012943;28;20116;-63
2022/04/18 09:33:03;;;;;;;0.32;0.32;;;15.00;66.60;;;;;;5013076;28;20057;-63
2022/04/18 09:35:30;;;;;;;1.35;1.25;;;15.00;68.40;;;;;;5012842;28;20025;-62
2022/04/18 09:38:11;;;;;;;0.00;0.00;;;15.20;70.30;;;;;;4999744;28;20109;-62
2022/04/18 09:40:37;;;;;;;0.40;0.22;;;15.40;69.70;;;;;;5012769;28;20734;-62
2022/04/18 09:43:03;;;;;;;0.08;0.08;;;15.60;67.70;;;;;;4995179;28;20081;-63
2022/04/18 09:45:29;;;;;;;0.15;0.15;;;15.80;67.40;;;;;;5012720;28;20026;-62
2022/04/18 09:48:00;;;;;;;0.00;0.00;;;16.00;65.20;;;;;;5012422;28;20494;-62
2022/04/18 09:53:22;;;;;;;0.00;0.00;;;16.00;65.60;;;;;;5012382;28;20065;-62
2022/04/18 09:55:55;;;;;;;0.08;0.08;;;15.90;65.60;;;;;;5012712;28;20045;-62
2022/04/18 09:58:22;;;;;;;0.00;0.00;;;16.00;65.60;;;;;;5012294;28;20041;-62
2022/04/18 10:00:49;;;;;;;2.10;0.40;;;16.20;65.10;;;;;;5012683;28;20062;-63
2022/04/18 10:03:16;;;;;;;0.10;0.10;;;16.50;63.50;;;;;;5012134;28;20053;-62
2022/04/18 10:05:42;;;;;;;0.00;0.00;;;16.00;63.60;;;;;;4995200;28;20049;-62
2022/04/18 10:08:08;;;;;;;0.28;0.28;;;15.90;63.30;;;;;;4994499;28;20022;-62
2022/04/18 10:10:36;;;;;;;4.03;0.32;;;16.20;65.90;;;;;;5012021;28;20053;-62
2022/04/18 10:13:06;;;;;;;0.50;0.50;;;16.50;64.70;;;;;;5012208;28;20068;-65
2022/04/18 10:15:35;;;;;;;0.00;0.00;;;16.60;63.60;;;;;;4995278;28;20041;-66
2022/04/18 10:18:08;;;;;;;0.00;0.00;;;16.60;62.50;;;;;;4978334;28;20029;-67
2022/04/18 10:21:08;;;;;;;0.00;0.00;;;16.80;63.70;;;;;;5012097;28;20022;-64
2022/04/18 10:24:18;;;;;;;0.00;0.00;;;16.90;63.60;;;;;;5012111;28;20038;-64
2022/04/18 10:27:13;;;;;;;0.00;0.00;;;17.10;62.30;;;;;;5011863;28;20030;-63
2022/04/18 10:29:48;;;;;;;0.80;0.45;;;16.50;63.20;;;;;;4983187;28;20064;-65
2022/04/18 10:32:22;;;;;;;1.75;0.35;;;16.70;62.20;;;;;;4978967;28;20037;-64
2022/04/18 10:35:02;;;;;;;0.43;0.32;;;16.70;61.10;;;;;;4995092;28;20108;-63
2022/04/18 10:37:30;;;;;;;0.00;0.00;;;16.90;64.40;;;;;;4993973;28;20474;-64
2022/04/18 10:40:04;;;;;;;0.10;0.10;;;16.90;63.80;;;;;;5010823;28;20041;-64
2022/04/18 10:42:34;;;;;;;0.13;0.10;;;16.90;61.50;;;;;;5012081;28;20034;-63
2022/04/18 10:45:11;;;;;;;0.15;0.15;;;17.00;62.50;;;;;;4994354;28;20379;-63
2022/04/18 10:48:03;;;;;;;0.22;0.22;;;17.10;60.30;;;;;;5011454;28;20034;-63
2022/04/18 10:50:48;;;;;;;0.25;0.17;;;17.50;64.40;;;;;;4994171;28;20037;-64
2022/04/18 10:53:40;;;;;;;2.28;0.60;;;17.80;61.80;;;;;;5010971;28;20034;-64
2022/04/18 10:56:10;;;;;;;0.40;0.40;;;17.60;61.60;;;;;;5007542;28;20042;-64
2022/04/18 10:58:36;;;;;;;0.17;0.17;;;17.60;60.70;;;;;;4993577;28;20030;-64
2022/04/18 11:01:07;;;;;;;0.13;0.13;;;17.90;60.50;;;;;;4993654;28;20486;-64
2022/04/18 11:03:49;;;;;;;0.08;0.03;;;18.10;60.60;;;;;;4994230;28;20030;-64
2022/04/18 11:06:15;;;;;;;0.17;0.15;;;18.00;60.20;;;;;;5011188;28;20192;-63
2022/04/18 11:08:42;;;;;;;0.13;0.10;;;17.50;58.80;;;;;;4993451;28;20125;-64
2022/04/18 11:11:16;;;;;;;1.80;0.85;;;18.00;59.30;;;;;;5010966;28;20030;-64
2022/04/18 11:13:46;;;;;;;0.00;0.00;;;18.00;60.10;;;;;;4993737;28;20038;-64
2022/04/18 11:16:24;;;;;;;0.00;0.00;;;18.30;59.70;;;;;;5010773;28;20026;-64
2022/04/18 11:19:08;;;;;;;0.32;0.32;;;18.30;59.90;;;;;;5010882;28;20033;-64
2022/04/18 11:21:59;;;;;;;0.00;0.00;;;18.60;58.30;;;;;;5010922;28;20564;-63
2022/04/18 11:24:38;;;;;;;0.00;0.00;;;18.80;59.30;;;;;;5010801;28;20038;-64
2022/04/18 11:27:18;;;;;;;0.28;0.28;;;18.40;57.70;;;;;;5010946;28;20025;-63
2022/04/18 11:29:50;;;;;;;0.00;0.00;;;18.00;58.70;;;;;;4989996;28;20068;-69
2022/04/18 11:32:20;;;;;;;0.00;0.00;;;18.60;59.50;;;;;;4997854;28;20530;-69
2022/04/18 11:34:49;;;;;;;1.45;1.10;;;18.90;58.40;;;;;;4990687;28;20037;-69
2022/04/18 11:37:27;;;;;;;0.10;0.10;;;18.70;58.50;;;;;;5008546;28;20065;-70
2022/04/18 11:39:58;;;;;;;0.00;0.00;;;18.90;57.60;;;;;;5025940;28;20180;-69
2022/04/18 11:42:32;;;;;;;0.00;0.00;;;18.50;60.00;;;;;;5010189;28;20666;-71
2022/04/18 11:45:02;;;;;;;0.10;0.10;;;17.80;57.00;;;;;;5010290;28;20038;-71
2022/04/18 11:47:40;;;;;;;0.00;0.00;;;17.70;56.30;;;;;;5009767;28;20089;-68
2022/04/18 11:50:09;;;;;;;0.00;0.00;;;18.10;57.90;;;;;;5009820;28;20033;-69
2022/04/18 11:52:41;;;;;;;0.00;0.00;;;19.00;57.10;;;;;;4992819;28;20069;-69
2022/04/18 11:55:17;;;;;;;0.10;0.10;;;19.30;56.40;;;;;;4992675;28;20030;-70
2022/04/18 11:57:46;;;;;;;0.00;0.00;;;19.00;56.30;;;;;;4992773;28;20022;-68
2022/04/18 12:08:48;;;;;;;0.00;0.00;;;18.80;58.30;;;;;;5009594;28;20029;-69
2022/04/18 12:11:14;;;;;;;0.20;0.20;;;19.70;59.30;;;;;;4992429;28;20025;-70
2022/04/18 12:13:42;;;;;;;0.00;0.00;;;19.60;57.70;;;;;;5010189;28;20080;-69
2022/04/18 12:16:09;;;;;;;0.00;0.00;;;20.10;58.50;;;;;;5009980;28;20053;-70
2022/04/18 12:18:35;;;;;;;0.10;0.10;;;20.30;58.50;;;;;;5009870;28;20072;-71
2022/04/18 12:21:00;;;;;;;0.00;0.00;;;20.60;56.70;;;;;;5010069;28;20058;-72
2022/04/18 12:23:27;;;;;;;0.10;0.10;;;21.10;55.10;;;;;;5009367;28;20500;-73
2022/04/18 12:25:58;;;;;;;0.05;0.03;;;21.00;54.60;;;;;;4992383;28;20038;-73
2022/04/18 12:28:26;;;;;;;;;;;20.70;55.90;;;;;;5009017;28;20033;-72
2022/04/18 12:30:53;;;;;;;0.80;0.63;;;20.50;55.80;;;;;;4992535;28;20460;-71
2022/04/18 12:33:24;;;;;;;0.08;0.08;;;20.60;54.70;;;;;;5008411;28;20033;-71
2022/04/18 12:35:56;;;;;;;0.00;0.00;;;20.30;54.90;;;;;;5009847;28;20844;-71
2022/04/18 12:38:34;;;;;;;0.00;0.00;;;21.20;56.80;;;;;;5008450;28;20061;-71
2022/04/18 12:41:01;;;;;;;0.00;0.00;;;20.90;53.20;;;;;;5009479;28;20038;-71
2022/04/18 12:43:33;;;;;;;1.45;0.25;;;20.90;53.50;;;;;;4976155;28;20040;-72
2022/04/18 12:46:09;;;;;;;0.00;0.00;;;21.10;54.60;;;;;;5010039;28;20034;-71
2022/04/18 12:48:38;;;;;;;0.20;0.20;;;21.80;53.10;;;;;;5009623;28;20371;-69
2022/04/18 12:51:07;;;;;;;0.00;0.00;;;21.90;51.70;;;;;;4991931;28;20022;-68
2022/04/18 12:53:55;;;;;;;0.00;0.00;;;21.80;52.90;;;;;;4992090;28;20485;-69
2022/04/18 12:56:23;;;;;;;0.00;0.00;;;21.60;50.20;;;;;;5009109;28;20065;-68
2022/04/18 12:58:55;;;;;;;0.00;0.00;;;21.00;52.80;;;;;;4992021;28;20068;-69
2022/04/18 13:01:36;;;;;;;0.10;0.10;;;22.00;50.80;;;;;;5009499;28;20490;-71
2022/04/18 13:04:22;;;;;;;0.03;0.03;;;22.50;50.80;;;;;;5012514;28;20030;-68
2022/04/18 13:07:07;;;;;;;0.55;0.30;;;21.70;52.30;;;;;;4995358;28;20026;-69
2022/04/18 13:09:33;;;;;;;3.58;1.73;;;22.60;49.40;;;;;;4995132;28;20033;-62
2022/04/18 13:12:08;;;;;;;0.00;0.00;;;22.80;48.90;;;;;;5020712;28;20040;-64
2022/04/18 13:14:59;;;;;;;0.47;0.17;;;21.60;52.60;;;;;;5008017;28;20099;-64
2022/04/18 13:17:25;;;;;;;0.00;0.00;;;22.70;49.20;;;;;;5010462;28;20045;-65
2022/04/18 13:19:51;;;;;;;0.00;0.00;;;22.00;49.90;;;;;;5012867;28;20501;-64
2022/04/18 13:22:16;;;;;;;0.40;0.30;;;23.10;47.80;;;;;;5013274;28;20026;-64
2022/04/18 13:24:42;;;;;;;4.18;1.55;;;23.60;48.50;;;;;;4995415;28;20120;-64
2022/04/18 13:27:26;;;;;;;0.00;0.00;;;22.30;50.10;;;;;;4995437;28;20037;-64
2022/04/18 13:29:52;;;;;;;0.75;0.40;;;23.60;49.40;;;;;;4995683;28;20026;-64
2022/04/18 13:32:18;;;;;;;0.00;0.00;;;24.90;46.20;;;;;;4995490;28;20486;-64